Time;durP1;ratioP1;P1;durP2;ratioP2;P2;SDS_P1;SDS_P2;PMS_P1;PMS_P2;Temp;Humidity;BMP_temperature;BMP_pressure;BME280_temperature;BME280_humidity;BME280_pressure;Samples;Min_cycle;Max_cycle;Signal;HPM_P1;HPM_P2
2021/08/08 00:02:13;;;;;;;;;3.25;2.25;;;;;17.73;69.87;100653.88;5071830;27;45442;-70
2021/08/08 00:04:38;;;;;;;;;2.25;2.25;;;;;17.67;69.71;100657.81;5073928;27;45562;-70
2021/08/08 00:07:04;;;;;;;;;2.25;2.25;;;;;17.60;69.85;100653.06;5074696;27;45263;-70
2021/08/08 00:09:29;;;;;;;;;2.50;2.50;;;;;17.54;70.24;100654.38;5073611;28;46558;-70
2021/08/08 00:11:54;;;;;;;;;3.00;2.50;;;;;17.47;70.45;100655.75;5073108;27;45487;-70
2021/08/08 00:14:21;;;;;;;;;3.00;1.50;;;;;17.37;70.42;100652.94;5071372;27;45661;-70
2021/08/08 00:16:46;;;;;;;;;3.00;1.25;;;;;17.33;70.23;100655.91;5073332;27;45509;-70
2021/08/08 00:19:12;;;;;;;;;4.25;2.00;;;;;17.29;70.56;100665.94;5073049;28;46302;-70
2021/08/08 00:21:37;;;;;;;;;2.00;1.00;;;;;17.21;71.02;100661.16;5073930;28;54814;-70
2021/08/08 00:24:03;;;;;;;;;2.75;2.75;;;;;17.20;70.75;100674.56;5071788;27;45537;-70
2021/08/08 00:26:28;;;;;;;;;4.25;2.25;;;;;17.16;71.23;100665.94;5074211;28;45612;-70
2021/08/08 00:28:53;;;;;;;;;4.50;2.00;;;;;17.13;71.31;100670.66;5071619;28;47375;-70
2021/08/08 00:31:23;;;;;;;;;4.00;3.00;;;;;17.12;70.99;100668.91;5072161;28;57618;-70
2021/08/08 00:33:50;;;;;;;;;5.25;2.25;;;;;17.08;71.33;100670.97;5075198;27;45382;-70
2021/08/08 00:36:16;;;;;;;;;1.50;1.50;;;;;17.03;71.90;100662.47;5072324;27;45500;-70
2021/08/08 00:38:41;;;;;;;;;5.50;2.00;;;;;17.01;71.79;100674.16;5073160;27;46351;-70
2021/08/08 00:41:06;;;;;;;;;3.00;3.00;;;;;16.97;72.49;100662.91;5071577;27;51267;-70
2021/08/08 00:43:32;;;;;;;;;3.00;3.00;;;;;16.94;72.04;100668.44;5072415;28;47756;-70
2021/08/08 00:45:57;;;;;;;;;2.00;2.00;;;;;16.89;72.40;100670.56;5075137;27;45290;-70
2021/08/08 00:48:23;;;;;;;;;4.25;2.75;;;;;16.85;72.62;100669.06;5072946;27;45620;-70
2021/08/08 00:50:48;;;;;;;;;6.75;2.50;;;;;16.78;72.87;100666.00;5072685;28;45347;-71
2021/08/08 00:53:14;;;;;;;;;6.00;4.00;;;;;16.77;72.61;100659.00;5072549;27;45832;-70
2021/08/08 00:55:39;;;;;;;;;5.00;2.75;;;;;16.75;73.45;100666.22;5072895;28;45377;-70
2021/08/08 00:58:04;;;;;;;;;5.00;3.75;;;;;16.71;73.51;100659.44;5073579;27;45546;-70
2021/08/08 01:00:30;;;;;;;;;1.50;1.00;;;;;16.69;73.29;100670.09;5073104;28;45495;-70
2021/08/08 01:03:04;;;;;;;;;3.00;2.00;;;;;16.69;73.70;100672.75;5072578;27;45259;-70
2021/08/08 01:05:37;;;;;;;;;2.25;2.25;;;;;16.65;73.25;100668.66;5072404;28;45531;-70
2021/08/08 01:08:06;;;;;;;;;4.00;4.00;;;;;16.63;73.82;100673.19;5075193;27;46448;-70
2021/08/08 01:10:33;;;;;;;;;2.25;2.25;;;;;16.60;73.80;100680.50;5073118;27;45730;-70
2021/08/08 01:13:01;;;;;;;;;4.50;3.50;;;;;16.55;74.13;100672.00;5073168;27;45323;-70
2021/08/08 01:15:26;;;;;;;;;4.75;4.50;;;;;16.53;74.15;100676.59;5076141;28;45618;-70
2021/08/08 01:17:52;;;;;;;;;4.00;3.00;;;;;16.51;74.52;100681.16;5075049;27;46358;-70
2021/08/08 01:20:18;;;;;;;;;3.50;3.50;;;;;16.45;74.79;100682.44;5075414;27;45428;-70
2021/08/08 01:22:49;;;;;;;;;4.00;4.00;;;;;16.41;74.75;100675.63;5075151;27;45521;-70
2021/08/08 01:25:15;;;;;;;;;4.50;4.00;;;;;16.37;75.22;100682.09;5074925;28;45620;-70
2021/08/08 01:27:41;;;;;;;;;5.00;4.50;;;;;16.34;75.37;100684.94;5077511;27;45377;-70
2021/08/08 01:30:09;;;;;;;;;2.25;1.50;;;;;16.31;75.33;100679.88;5075632;27;45341;-70
2021/08/08 01:32:34;;;;;;;;;4.50;3.25;;;;;16.27;75.34;100681.00;5076132;27;45385;-70
2021/08/08 01:35:00;;;;;;;;;7.50;4.00;;;;;16.30;75.85;100686.13;5075572;28;45481;-70
2021/08/08 01:37:26;;;;;;;;;4.75;3.00;;;;;16.34;75.69;100688.47;5075623;27;45567;-70
2021/08/08 01:39:58;;;;;;;;;3.75;3.75;;;;;16.35;76.06;100689.31;5078072;27;45341;-70
2021/08/08 01:42:24;;;;;;;;;3.25;3.25;;;;;16.38;75.76;100683.78;5073933;27;45460;-70
2021/08/08 01:44:52;;;;;;;;;3.25;3.25;;;;;16.43;75.43;100692.28;5074423;27;45469;-70
2021/08/08 01:47:25;;;;;;;;;3.75;3.75;;;;;16.47;75.27;100695.59;5075731;27;45507;-70
2021/08/08 01:49:50;;;;;;;;;4.25;3.00;;;;;16.48;75.39;100694.63;5074637;28;45418;-70
2021/08/08 01:52:16;;;;;;;;;3.00;3.00;;;;;16.44;75.46;100689.53;5075979;28;45429;-70
2021/08/08 01:54:42;;;;;;;;;4.75;3.75;;;;;16.42;75.10;100690.59;5076185;28;45660;-70
2021/08/08 01:57:09;;;;;;;;;6.00;3.75;;;;;16.46;75.38;100697.38;5074741;28;45403;-70
2021/08/08 01:59:34;;;;;;;;;3.75;3.50;;;;;16.47;75.11;100699.09;5074025;27;45529;-70
2021/08/08 02:02:10;;;;;;;;;3.00;3.00;;;;;16.49;75.58;100688.34;5076224;27;45513;-70
2021/08/08 02:04:36;;;;;;;;;3.00;3.00;;;;;16.48;75.25;100686.66;5060614;28;45386;-70
2021/08/08 02:07:02;;;;;;;;;2.25;2.25;;;;;16.48;75.24;100690.16;5077486;27;46354;-70
2021/08/08 02:09:28;;;;;;;;;5.75;4.00;;;;;16.51;75.63;100695.28;5074053;27;45771;-70
2021/08/08 02:11:53;;;;;;;;;4.50;3.25;;;;;16.56;75.23;100695.81;5074574;28;55768;-70
2021/08/08 02:14:18;;;;;;;;;4.00;2.00;;;;;16.60;75.10;100699.97;5074809;27;54849;-70
2021/08/08 02:16:44;;;;;;;;;4.25;3.00;;;;;16.63;75.42;100693.56;5074871;27;46614;-70
2021/08/08 02:19:09;;;;;;;;;5.25;3.00;;;;;16.66;75.05;100696.03;5076235;27;45520;-70
2021/08/08 02:21:34;;;;;;;;;3.00;3.00;;;;;16.63;74.36;100690.91;5074291;28;48587;-70
2021/08/08 02:24:00;;;;;;;;;4.00;3.00;;;;;16.69;74.73;100701.94;5073417;27;49954;-70
2021/08/08 02:26:25;;;;;;;;;3.00;3.00;;;;;16.69;74.58;100709.91;5072547;28;46413;-71
2021/08/08 02:28:50;;;;;;;;;4.00;2.25;;;;;16.69;74.69;100709.06;5085235;27;45504;-70
2021/08/08 02:31:18;;;;;;;;;5.75;3.00;;;;;16.67;74.57;100711.00;5080225;27;45417;-70
2021/08/08 02:33:44;;;;;;;;;3.00;3.00;;;;;16.66;74.50;100709.28;5074776;28;45448;-70
2021/08/08 02:36:10;;;;;;;;;3.25;3.25;;;;;16.58;74.66;100709.81;5074623;27;45661;-70
2021/08/08 02:38:35;;;;;;;;;2.50;2.00;;;;;16.63;74.79;100715.66;5073912;27;46336;-70
2021/08/08 02:41:00;;;;;;;;;5.00;2.00;;;;;16.64;74.75;100716.50;5074513;27;45678;-70
2021/08/08 02:43:26;;;;;;;;;4.50;3.00;;;;;16.63;74.40;100715.66;5080677;27;45900;-70
2021/08/08 02:45:51;;;;;;;;;4.00;3.00;;;;;16.66;74.71;100725.22;5076770;27;49848;-70
2021/08/08 02:48:17;;;;;;;;;3.00;2.00;;;;;16.66;74.81;100727.88;5074561;27;45566;-70
2021/08/08 02:50:43;;;;;;;;;3.25;2.00;;;;;16.64;74.96;100735.91;5073526;27;45430;-70
2021/08/08 02:53:09;;;;;;;;;3.75;2.50;;;;;16.63;75.11;100728.91;5076665;27;45464;-70
2021/08/08 02:55:34;;;;;;;;;4.75;3.00;;;;;16.60;75.20;100725.59;5074107;28;46256;-70
2021/08/08 02:57:59;;;;;;;;;7.00;3.00;;;;;16.63;74.95;100728.91;5076205;27;45473;-70
2021/08/08 03:00:25;;;;;;;;;4.00;3.00;;;;;16.65;74.87;100726.16;5073248;27;47653;-70
2021/08/08 03:02:51;;;;;;;;;6.25;3.00;;;;;16.63;74.96;100722.75;5074088;27;53473;-70
2021/08/08 03:05:16;;;;;;;;;2.75;2.00;;;;;16.67;74.99;100733.06;5073004;28;45518;-70
2021/08/08 03:07:42;;;;;;;;;3.50;3.50;;;;;16.68;75.03;100729.44;5072491;28;45471;-70
2021/08/08 03:10:08;;;;;;;;;5.25;4.75;;;;;16.70;75.06;100735.53;5075424;27;45319;-70
2021/08/08 03:12:34;;;;;;;;;4.00;4.00;;;;;16.68;74.90;100733.91;5074966;28;45595;-70
2021/08/08 03:14:59;;;;;;;;;3.00;3.00;;;;;16.65;75.32;100732.34;5074186;27;46436;-70
2021/08/08 03:17:25;;;;;;;;;6.00;4.00;;;;;16.61;74.79;100725.53;5072878;27;45397;-70
2021/08/08 03:19:50;;;;;;;;;6.00;4.00;;;;;16.62;75.29;100739.63;5074835;27;45283;-70
2021/08/08 03:22:15;;;;;;;;;6.25;3.00;;;;;16.61;75.19;100735.28;5074666;27;45304;-70
2021/08/08 03:24:42;;;;;;;;;5.00;3.25;;;;;16.55;75.16;100731.25;5075380;27;46372;-70
2021/08/08 03:27:08;;;;;;;;;8.25;5.00;;;;;16.55;75.43;100744.53;5074014;27;45676;-70
2021/08/08 03:29:33;;;;;;;;;5.50;4.00;;;;;16.56;75.38;100746.22;5073329;28;45430;-70
2021/08/08 03:31:59;;;;;;;;;4.00;3.25;;;;;16.51;75.32;100732.41;5071618;28;45460;-70
2021/08/08 03:34:24;;;;;;;;;5.25;5.00;;;;;16.50;75.45;100743.97;5074356;27;46262;-70
2021/08/08 03:36:49;;;;;;;;;8.00;4.00;;;;;16.47;75.53;100745.97;5076017;27;45389;-70
2021/08/08 03:39:14;;;;;;;;;3.00;3.00;;;;;16.43;75.50;100737.38;5074226;28;45601;-70
2021/08/08 03:41:40;;;;;;;;;5.00;2.00;;;;;16.40;75.60;100741.09;5072144;27;49993;-70
2021/08/08 03:44:05;;;;;;;;;6.00;5.00;;;;;16.39;75.65;100754.44;5072872;28;61250;-70
2021/08/08 03:46:30;;;;;;;;;7.75;3.00;;;;;16.36;75.94;100747.56;5074327;27;45389;-70
2021/08/08 03:48:56;;;;;;;;;4.25;4.00;;;;;16.36;75.84;100747.56;5076004;27;45294;-70
2021/08/08 03:51:21;;;;;;;;;6.00;4.00;;;;;16.40;75.83;100749.06;5069224;27;45443;-70
2021/08/08 03:53:46;;;;;;;;;6.50;3.75;;;;;16.42;75.61;100752.44;5073179;27;45412;-70
2021/08/08 03:56:12;;;;;;;;;6.75;5.50;;;;;16.42;75.82;100754.25;5071631;27;53724;-70
2021/08/08 03:58:37;;;;;;;;;8.00;4.75;;;;;16.41;75.37;100755.19;5073657;28;45444;-70
2021/08/08 04:01:03;;;;;;;;;7.00;4.00;;;;;16.39;75.27;100752.66;5074965;28;48218;-70
2021/08/08 04:03:30;;;;;;;;;8.00;5.25;;;;;16.35;75.33;100758.28;5074196;28;45426;-70
2021/08/08 04:05:55;;;;;;;;;6.00;4.00;;;;;16.29;76.03;100750.72;5073778;27;45733;-70
2021/08/08 04:08:21;;;;;;;;;6.50;3.75;;;;;16.23;75.63;100756.41;5073657;27;45513;-70
2021/08/08 04:10:46;;;;;;;;;6.25;4.00;;;;;16.16;75.39;100761.28;5073144;27;45480;-70
2021/08/08 04:13:12;;;;;;;;;7.25;5.00;;;;;16.11;75.88;100750.13;5074024;27;46524;-70
2021/08/08 04:15:37;;;;;;;;;3.75;3.25;;;;;16.07;76.32;100745.97;5074198;27;49301;-70
2021/08/08 04:18:03;;;;;;;;;5.00;4.00;;;;;16.05;76.33;100756.69;5071581;28;45868;-70
2021/08/08 04:20:28;;;;;;;;;6.00;5.00;;;;;16.02;75.89;100756.88;5072020;27;45635;-70
2021/08/08 04:22:53;;;;;;;;;8.50;7.00;;;;;16.05;76.28;100767.28;5072210;27;56952;-70
2021/08/08 04:25:19;;;;;;;;;7.50;4.00;;;;;16.05;76.34;100769.94;5073179;27;55116;-70
2021/08/08 04:27:44;;;;;;;;;4.25;4.00;;;;;16.08;76.30;100777.69;5073824;27;45377;-70
2021/08/08 04:30:10;;;;;;;;;6.25;5.00;;;;;16.09;76.42;100779.41;5072715;28;50346;-70
2021/08/08 04:32:35;;;;;;;;;6.50;5.25;;;;;16.12;76.12;100784.47;5073043;27;45398;-70
2021/08/08 04:35:01;;;;;;;;;9.25;4.75;;;;;16.16;76.01;100787.78;5071181;27;62247;-70
2021/08/08 04:37:27;;;;;;;;;6.50;5.00;;;;;16.15;76.64;100781.66;5073405;28;45576;-70
2021/08/08 04:39:52;;;;;;;;;4.00;4.00;;;;;16.18;75.83;100785.88;5075092;27;45402;-70
2021/08/08 04:42:17;;;;;;;;;8.00;5.00;;;;;16.16;75.29;100790.44;5072710;27;45552;-70
2021/08/08 04:44:43;;;;;;;;;7.75;4.75;;;;;16.18;75.93;100785.88;5073323;28;45421;-70
2021/08/08 04:47:08;;;;;;;;;5.25;3.75;;;;;16.17;75.30;100790.34;5073340;28;45341;-70
2021/08/08 04:49:33;;;;;;;;;6.00;5.00;;;;;16.17;75.66;100798.28;5073264;27;45284;-70
2021/08/08 04:52:02;;;;;;;;;5.25;3.75;;;;;16.20;75.72;100791.09;5073411;27;62025;-70
2021/08/08 04:54:27;;;;;;;;;7.75;6.00;;;;;16.23;75.29;100788.22;5072552;27;45620;-70
2021/08/08 04:56:52;;;;;;;;;6.25;4.00;;;;;16.18;74.65;100783.22;5070272;28;59223;-70
2021/08/08 04:59:18;;;;;;;;;6.00;5.00;;;;;16.16;74.84;100790.44;5072584;28;47935;-70
2021/08/08 05:01:43;;;;;;;;;7.00;5.00;;;;;16.17;74.97;100792.13;5068402;28;61920;-70
2021/08/08 05:04:08;;;;;;;;;4.00;2.00;;;;;16.15;75.02;100792.25;5069085;28;45411;-71
2021/08/08 05:06:34;;;;;;;;;8.50;4.75;;;;;16.15;74.93;100788.75;5072958;27;45499;-70
2021/08/08 05:08:59;;;;;;;;;6.50;5.25;;;;;16.16;74.67;100798.41;5071877;27;45444;-70
2021/08/08 05:11:24;;;;;;;;;7.25;5.50;;;;;16.18;74.92;100801.78;5071450;27;45502;-70
2021/08/08 05:13:50;;;;;;;;;6.75;4.00;;;;;16.20;74.84;100807.00;5073122;27;45333;-70
2021/08/08 05:16:15;;;;;;;;;10.50;6.25;;;;;16.21;75.21;100804.25;5072924;28;56701;-70
2021/08/08 05:18:40;;;;;;;;;7.00;3.75;;;;;16.27;74.61;100798.53;5089968;27;45267;-70
2021/08/08 05:21:06;;;;;;;;;11.00;5.00;;;;;16.27;74.37;100797.69;5071436;27;45460;-70
2021/08/08 05:23:31;;;;;;;;;5.75;5.00;;;;;16.28;74.81;100796.75;5071105;27;45430;-70
2021/08/08 05:26:02;;;;;;;;;6.00;5.00;;;;;16.34;74.28;100799.84;5072435;27;45541;-70
2021/08/08 05:28:27;;;;;;;;;4.75;3.75;;;;;16.40;74.20;100796.78;5072198;27;45592;-70
2021/08/08 05:30:53;;;;;;;;;7.00;4.00;;;;;16.50;73.82;100796.19;5073865;27;45516;-70
2021/08/08 05:33:18;;;;;;;;;3.75;3.75;;;;;16.63;73.77;100799.72;5071413;28;45563;-70
2021/08/08 05:35:43;;;;;;;;;4.00;4.00;;;;;16.76;73.49;100794.44;5070624;27;45619;-70
2021/08/08 05:38:09;;;;;;;;;4.00;3.50;;;;;16.88;73.65;100798.94;5072488;28;45445;-70
2021/08/08 05:40:34;;;;;;;;;4.00;4.00;;;;;17.02;72.51;100795.31;5071042;28;47289;-70
2021/08/08 05:42:59;;;;;;;;;7.75;4.00;;;;;17.16;72.41;100793.41;5069261;28;56692;-70
2021/08/08 05:45:25;;;;;;;;;6.25;4.75;;;;;17.33;71.86;100796.69;5071772;27;45954;-70
2021/08/08 05:47:51;;;;;;;;;5.25;3.00;;;;;17.54;71.61;100803.19;5071481;27;46143;-72
2021/08/08 05:50:16;;;;;;;;;7.50;5.25;;;;;17.65;71.14;100803.25;5071949;27;45885;-69
2021/08/08 05:52:49;;;;;;;;;5.00;5.00;;;;;17.72;71.17;100799.22;5073038;27;45516;-69
2021/08/08 05:55:16;;;;;;;;;5.00;3.50;;;;;17.74;70.80;100804.41;5076729;27;45346;-71
2021/08/08 05:57:42;;;;;;;;;6.50;5.25;;;;;17.71;70.67;100805.47;5077001;28;45605;-69
2021/08/08 06:00:07;;;;;;;;;3.00;3.00;;;;;17.68;70.25;100810.16;5074796;27;46431;-69
2021/08/08 06:02:33;;;;;;;;;8.00;4.00;;;;;17.65;70.37;100808.56;5074405;27;45253;-69
2021/08/08 06:04:59;;;;;;;;;4.00;4.00;;;;;17.66;70.28;100818.25;5074920;27;45283;-69
2021/08/08 06:07:24;;;;;;;;;3.50;3.25;;;;;17.66;70.11;100818.25;5075151;28;60279;-69
2021/08/08 06:09:49;;;;;;;;;8.50;4.00;;;;;17.70;70.75;100817.06;5077031;27;49520;-70
2021/08/08 06:12:14;;;;;;;;;5.00;4.75;;;;;17.78;70.70;100818.34;5069486;27;49909;-69
2021/08/08 06:14:40;;;;;;;;;3.50;3.50;;;;;17.79;70.48;100801.44;5070334;27;45582;-69
2021/08/08 06:17:05;;;;;;;;;5.75;4.00;;;;;17.99;69.72;100820.31;5072599;28;45435;-69
2021/08/08 06:19:30;;;;;;;;;5.75;3.50;;;;;18.03;69.67;100825.41;5075879;27;45522;-69
2021/08/08 06:21:56;;;;;;;;;7.00;5.00;;;;;18.06;69.71;100823.34;5072323;27;58275;-69
2021/08/08 06:24:21;;;;;;;;;4.50;4.25;;;;;18.11;69.50;100825.69;5076793;27;45612;-69
2021/08/08 06:26:46;;;;;;;;;7.00;3.50;;;;;18.10;69.42;100838.13;5075694;27;48115;-69
2021/08/08 06:29:12;;;;;;;;;5.25;5.00;;;;;18.02;69.76;100829.88;5074689;28;46488;-70
2021/08/08 06:31:37;;;;;;;;;3.00;3.00;;;;;17.95;69.23;100821.47;5072804;27;45445;-70
2021/08/08 06:34:02;;;;;;;;;7.25;7.00;;;;;18.10;69.29;100830.16;5076926;27;45503;-70
2021/08/08 06:36:29;;;;;;;;;6.50;5.00;;;;;18.39;68.51;100837.81;5074254;27;48272;-70
2021/08/08 06:38:55;;;;;;;;;4.25;4.00;;;;;18.59;67.97;100842.53;5074312;27;46581;-70
2021/08/08 06:41:21;;;;;;;;;7.00;5.00;;;;;18.71;67.11;100846.09;5073405;27;45916;-70
2021/08/08 06:43:47;;;;;;;;;9.25;6.00;;;;;18.71;67.57;100844.28;5074672;27;45339;-70
2021/08/08 06:46:12;;;;;;;;;9.25;5.00;;;;;18.78;67.50;100852.66;5074248;27;45448;-70
2021/08/08 06:48:37;;;;;;;;;6.00;4.25;;;;;18.85;67.09;100858.38;5074620;28;56549;-70
2021/08/08 06:51:03;;;;;;;;;9.50;5.75;;;;;18.83;66.64;100853.16;5071957;28;45323;-70
2021/08/08 06:53:28;;;;;;;;;6.75;4.50;;;;;18.82;66.71;100855.94;5073182;27;45453;-70
2021/08/08 06:55:54;;;;;;;;;7.75;5.25;;;;;18.73;66.81;100852.13;5074941;28;45599;-70
2021/08/08 06:58:19;;;;;;;;;4.50;4.00;;;;;18.65;66.74;100854.50;5074502;28;54742;-70
2021/08/08 07:00:46;;;;;;;;;3.25;3.25;;;;;18.60;66.56;100846.88;5076883;27;45381;-70
2021/08/08 07:03:11;;;;;;;;;6.25;4.50;;;;;18.43;66.23;100860.59;5074595;27;45394;-70
2021/08/08 07:05:36;;;;;;;;;6.25;3.75;;;;;18.38;66.75;100873.38;5073348;28;45406;-70
2021/08/08 07:08:02;;;;;;;;;4.75;4.00;;;;;18.60;67.11;100870.81;5074689;28;46400;-70
2021/08/08 07:10:27;;;;;;;;;4.50;4.50;;;;;18.83;66.93;100870.94;5072832;27;45558;-70
2021/08/08 07:12:53;;;;;;;;;3.75;3.00;;;;;19.05;65.87;100876.34;5075230;27;45429;-70
2021/08/08 07:15:18;;;;;;;;;5.00;5.00;;;;;19.12;66.10;100860.75;5074043;27;45308;-70
2021/08/08 07:17:43;;;;;;;;;6.50;5.50;;;;;19.45;65.40;100860.78;5074656;28;46213;-70
2021/08/08 07:20:09;;;;;;;;;6.00;4.00;;;;;19.73;65.59;100871.97;5074196;28;45467;-70
2021/08/08 07:22:35;;;;;;;;;7.50;6.00;;;;;20.07;64.75;100862.97;5074699;27;45365;-70
2021/08/08 07:25:00;;;;;;;;;7.00;3.75;;;;;20.48;63.56;100866.81;5071939;28;45338;-70
2021/08/08 07:27:26;;;;;;;;;10.75;4.00;;;;;20.74;64.72;100855.78;5074135;28;46187;-70
2021/08/08 07:29:52;;;;;;;;;5.75;4.75;;;;;20.87;63.53;100860.94;5073798;28;45463;-70
2021/08/08 07:32:17;;;;;;;;;7.00;3.50;;;;;21.00;61.98;100869.63;5072824;28;48176;-70
2021/08/08 07:34:42;;;;;;;;;5.00;5.00;;;;;20.95;61.46;100869.16;5072749;28;45814;-70
2021/08/08 07:37:08;;;;;;;;;8.75;5.00;;;;;20.95;62.19;100875.34;5074594;27;45457;-70
2021/08/08 07:39:34;;;;;;;;;7.00;4.00;;;;;20.98;61.71;100863.53;5075005;27;45434;-70
2021/08/08 07:41:59;;;;;;;;;4.75;4.25;;;;;20.89;61.21;100881.22;5073515;28;45535;-70
2021/08/08 07:44:25;;;;;;;;;5.00;2.25;;;;;20.76;60.88;100880.53;5073662;27;45532;-70
2021/08/08 07:46:50;;;;;;;;;8.50;5.25;;;;;20.41;60.91;100884.28;5071172;28;47312;-70
2021/08/08 07:49:15;;;;;;;;;4.00;4.00;;;;;20.12;61.78;100891.13;5074868;27;45426;-70
2021/08/08 07:51:41;;;;;;;;;3.50;3.50;;;;;19.91;62.22;100893.69;5073856;28;45432;-70
2021/08/08 07:54:06;;;;;;;;;7.00;4.75;;;;;19.76;62.26;100903.75;5073877;28;45496;-70
2021/08/08 07:56:32;;;;;;;;;5.00;4.00;;;;;19.58;62.97;100903.34;5073727;27;47786;-70
2021/08/08 07:58:57;;;;;;;;;7.75;4.25;;;;;19.49;62.97;100912.06;5073426;27;45602;-70
2021/08/08 08:01:22;;;;;;;;;5.50;3.00;;;;;19.43;62.91;100916.03;5073897;27;52277;-70
2021/08/08 08:03:48;;;;;;;;;6.25;4.00;;;;;19.30;63.10;100920.59;5075659;27;45426;-69
2021/08/08 08:06:13;;;;;;;;;4.75;4.00;;;;;19.23;63.23;100919.38;5072897;28;46257;-70
2021/08/08 08:08:40;;;;;;;;;8.00;4.00;;;;;19.16;64.38;100923.47;5073206;27;45504;-70
2021/08/08 08:11:06;;;;;;;;;3.25;3.25;;;;;19.18;64.19;100914.41;5072240;27;45414;-70
2021/08/08 08:13:31;;;;;;;;;5.25;4.75;;;;;19.22;64.19;100907.88;5073319;27;45327;-70
2021/08/08 08:15:57;;;;;;;;;6.75;5.00;;;;;19.17;63.87;100910.03;5075131;27;45379;-70
2021/08/08 08:18:23;;;;;;;;;9.00;6.00;;;;;19.42;63.99;100913.47;5073431;27;45285;-70
2021/08/08 08:20:48;;;;;;;;;5.00;4.25;;;;;19.77;63.76;100924.09;5073910;28;45414;-70
2021/08/08 08:23:13;;;;;;;;;5.75;3.50;;;;;20.06;62.54;100927.16;5073236;28;45469;-70
2021/08/08 08:25:39;;;;;;;;;6.00;4.50;;;;;20.53;62.36;100926.00;5073514;28;45361;-70
2021/08/08 08:28:04;;;;;;;;;7.00;6.25;;;;;21.13;61.30;100923.69;5074669;27;49718;-70
2021/08/08 08:30:30;;;;;;;;;6.25;5.75;;;;;21.59;60.93;100925.16;5072327;27;45710;-70
2021/08/08 08:32:55;;;;;;;;;4.25;3.00;;;;;21.55;59.20;100913.88;5073112;27;45480;-70
2021/08/08 08:35:20;;;;;;;;;3.75;3.00;;;;;21.78;59.62;100927.09;5073117;28;46499;-70
2021/08/08 08:37:46;;;;;;;;;4.50;4.50;;;;;22.58;58.27;100927.09;5072967;28;45448;-70
2021/08/08 08:40:12;;;;;;;;;5.00;4.00;;;;;23.29;56.36;100948.31;5074679;27;45437;-70
2021/08/08 08:42:50;;;;;;;;;6.00;5.00;;;;;23.98;55.27;100947.16;5073949;28;45446;-70
2021/08/08 08:45:16;;;;;;;;;3.75;3.50;;;;;24.55;54.74;100937.16;5073136;28;45564;-70
2021/08/08 08:47:43;;;;;;;;;4.00;3.00;;;;;26.95;53.79;100943.66;5073102;27;45481;-70
2021/08/08 08:50:11;;;;;;;;;4.50;3.00;;;;;28.42;46.80;100946.97;5071512;28;45335;-70
2021/08/08 08:52:37;;;;;;;;;5.25;5.00;;;;;28.81;48.77;100946.88;5071995;28;45544;-70
2021/08/08 08:55:03;;;;;;;;;4.25;3.75;;;;;29.95;48.68;100949.63;5075399;27;46672;-70
2021/08/08 08:57:30;;;;;;;;;4.00;4.00;;;;;30.25;46.98;100945.91;5072513;28;45663;-70
2021/08/08 08:59:58;;;;;;;;;2.00;2.00;;;;;32.39;42.56;100939.38;5073038;27;45353;-70
2021/08/08 09:02:23;;;;;;;;;6.75;4.25;;;;;34.97;35.10;100949.91;5072950;27;45411;-71
2021/08/08 09:04:48;;;;;;;;;6.00;3.00;;;;;36.91;38.20;100949.47;5072772;28;46414;-70
2021/08/08 09:07:14;;;;;;;;;5.50;3.50;;;;;37.22;36.14;100956.56;5073203;27;47179;-70
2021/08/08 09:09:39;;;;;;;;;6.00;3.75;;;;;35.64;33.30;100954.81;5071599;27;45377;-70
2021/08/08 09:12:05;;;;;;;;;6.00;3.50;;;;;34.91;35.54;100956.22;5072442;27;45319;-70
2021/08/08 09:14:34;;;;;;;;;3.50;3.00;;;;;34.21;34.40;100953.44;5072585;28;46771;-71
2021/08/08 09:17:00;;;;;;;;;3.00;3.00;;;;;35.44;33.43;100957.72;5072811;27;45504;-70
2021/08/08 09:19:34;;;;;;;;;4.75;3.00;;;;;35.62;36.55;100954.22;5073009;28;45447;-71
2021/08/08 09:22:00;;;;;;;;;2.50;1.75;;;;;37.14;33.47;100951.44;5074620;27;45380;-70
2021/08/08 09:24:36;;;;;;;;;5.50;2.50;;;;;37.16;32.50;100968.47;5072855;28;46456;-71
2021/08/08 09:27:10;;;;;;;;;4.25;2.00;;;;;37.09;31.57;100968.59;5071878;27;45336;-70
2021/08/08 09:29:40;;;;;;;;;2.00;2.00;;;;;36.11;31.28;100977.91;5074638;27;45239;-70
2021/08/08 09:32:06;;;;;;;;;4.00;2.50;;;;;34.72;30.63;100979.06;5076397;27;45667;-70
2021/08/08 09:34:35;;;;;;;;;4.00;2.50;;;;;32.20;32.88;100987.16;5075974;27;46894;-70
2021/08/08 09:37:16;;;;;;;;;4.25;3.00;;;;;30.44;36.15;100970.75;5077984;27;45495;-70
2021/08/08 09:39:45;;;;;;;;;3.25;2.50;;;;;29.11;36.67;100976.81;5089137;27;45445;-70
2021/08/08 09:42:10;;;;;;;;;4.50;3.00;;;;;28.25;39.00;100983.19;5077070;27;45801;-70
2021/08/08 09:44:38;;;;;;;;;3.75;3.75;;;;;28.41;39.84;100977.75;5075638;28;46408;-70
2021/08/08 09:47:04;;;;;;;;;4.00;3.00;;;;;28.29;39.03;100974.53;5074583;27;45311;-70
2021/08/08 09:49:29;;;;;;;;;4.00;4.00;;;;;28.23;40.22;100975.22;5075809;27;45382;-70
2021/08/08 09:51:54;;;;;;;;;4.75;2.00;;;;;28.86;40.15;100974.25;5078216;27;45394;-70
2021/08/08 09:54:20;;;;;;;;;2.50;2.50;;;;;29.11;38.91;100974.09;5075383;27;45454;-70
2021/08/08 09:56:59;;;;;;;;;2.75;1.50;;;;;29.34;38.90;100969.53;5075539;27;45556;-70
2021/08/08 09:59:26;;;;;;;;;3.00;3.00;;;;;29.90;38.26;100977.28;5075320;27;46135;-70
2021/08/08 10:01:52;;;;;;;;;6.00;3.25;;;;;30.47;37.93;100971.19;5076041;27;45469;-70
2021/08/08 10:04:17;;;;;;;;;2.25;2.25;;;;;30.80;38.26;100976.16;5075963;27;46456;-70
2021/08/08 10:06:44;;;;;;;;;2.00;1.75;;;;;30.67;36.47;100987.69;5077334;27;45349;-70
2021/08/08 10:09:11;;;;;;;;;4.00;2.00;;;;;30.11;37.09;100974.66;5073195;27;45520;-71
2021/08/08 10:11:37;;;;;;;;;3.25;2.25;;;;;29.83;38.13;101001.56;5075000;27;45334;-70
2021/08/08 10:14:05;;;;;;;;;3.25;3.25;;;;;29.20;37.98;100994.69;5075157;28;46365;-70
2021/08/08 10:16:34;;;;;;;;;4.25;4.00;;;;;28.96;37.99;101001.09;5075529;27;45579;-70
2021/08/08 10:19:02;;;;;;;;;3.00;3.00;;;;;29.26;38.66;100979.56;5077556;27;45425;-70
2021/08/08 10:21:31;;;;;;;;;4.75;3.50;;;;;29.64;37.74;100992.09;5075315;27;45381;-70
2021/08/08 10:24:06;;;;;;;;;4.75;3.75;;;;;29.58;36.81;100987.44;5075144;27;46096;-70
2021/08/08 10:26:32;;;;;;;;;2.50;2.00;;;;;29.56;36.17;100999.47;5074091;27;45363;-70
2021/08/08 10:28:59;;;;;;;;;2.00;2.00;;;;;29.45;36.00;101002.59;5075322;27;45416;-70
2021/08/08 10:31:27;;;;;;;;;3.00;1.50;;;;;28.98;36.46;100988.25;5075390;27;45257;-70
2021/08/08 10:33:55;;;;;;;;;2.50;2.50;;;;;28.74;36.97;100993.78;5076940;27;46751;-70
2021/08/08 10:36:28;;;;;;;;;6.00;3.50;;;;;28.30;36.56;100997.88;5075140;27;45586;-70
2021/08/08 10:39:37;;;;;;;;;2.00;2.00;;;;;27.62;37.12;100992.94;5073566;27;45526;-70
2021/08/08 10:42:03;;;;;;;;;3.25;2.00;;;;;26.96;38.29;100986.66;5033686;28;45442;-70
2021/08/08 10:44:28;;;;;;;;;3.00;2.00;;;;;26.70;39.12;101002.09;5029355;28;46698;-70
2021/08/08 10:46:54;;;;;;;;;4.25;3.00;;;;;26.44;39.86;100994.94;5033658;28;45490;-70
2021/08/08 10:49:33;;;;;;;;;2.50;2.50;;;;;26.44;41.08;100999.50;5033695;28;45460;-70
2021/08/08 10:52:00;;;;;;;;;1.00;1.00;;;;;26.68;40.29;100994.19;5034270;28;45341;-70
2021/08/08 10:54:26;;;;;;;;;3.00;2.00;;;;;27.01;39.86;100999.66;5033259;28;45506;-70
2021/08/08 10:56:51;;;;;;;;;3.00;2.50;;;;;27.27;39.55;100994.97;5028648;28;50903;-70
2021/08/08 10:59:21;;;;;;;;;3.75;2.00;;;;;27.39;40.58;100990.06;5029139;28;45298;-70
2021/08/08 11:02:07;;;;;;;;;4.50;2.50;;;;;27.52;40.03;100986.88;5031920;28;45640;-70
2021/08/08 11:04:33;;;;;;;;;3.00;3.00;;;;;27.51;38.27;100982.47;4999539;28;48494;-70
2021/08/08 11:06:59;;;;;;;;;2.50;1.50;;;;;27.25;37.98;100991.63;5033607;28;45444;-70
2021/08/08 11:09:25;;;;;;;;;4.25;3.00;;;;;27.06;39.60;100987.34;5028060;28;45505;-70
2021/08/08 11:11:56;;;;;;;;;4.00;3.00;;;;;27.19;39.53;101003.06;5033231;28;45486;-70
2021/08/08 11:14:22;;;;;;;;;3.75;1.00;;;;;27.04;38.23;100981.28;5029017;28;45486;-70
2021/08/08 11:17:01;;;;;;;;;2.00;2.00;;;;;26.90;38.84;100978.41;5069003;28;45451;-70
2021/08/08 11:19:35;;;;;;;;;2.00;2.00;;;;;26.90;38.50;100984.63;5074669;27;45684;-70
2021/08/08 11:22:05;;;;;;;;;3.50;1.25;;;;;26.86;39.14;100982.44;5071653;28;45424;-70